Time;durP1;ratioP1;P1;durP2;ratioP2;P2;SDS_P1;SDS_P2;PMS_P1;PMS_P2;Temp;Humidity;BMP_temperature;BMP_pressure;BME280_temperature;BME280_humidity;BME280_pressure;Samples;Min_cycle;Max_cycle;Signal;HPM_P1;HPM_P2
2023/09/05 00:01:26;;;;;;;2.80;2.60;;;;;;;12.21;100.00;96864.59;7437364;19;20376;-96
2023/09/05 00:04:28;;;;;;;3.93;2.87;;;;;;;10.30;100.00;96568.44;7435465;19;20407;-96
2023/09/05 00:07:13;;;;;;;3.40;3.10;;;;;;;12.54;100.00;96907.06;7436294;19;20381;-96
2023/09/05 00:10:05;;;;;;;4.03;2.67;;;;;;;10.36;100.00;96571.66;7434684;19;20435;-96
2023/09/05 00:12:47;;;;;;;2.83;2.60;;;;;;;9.98;100.00;96532.00;7432804;19;20428;-96
2023/09/05 00:15:33;;;;;;;4.30;2.97;;;;;;;11.67;100.00;96770.94;7435552;19;20401;-96
2023/09/05 00:18:10;;;;;;;3.53;3.00;;;;;;;10.34;100.00;96568.56;7434612;19;20418;-96
2023/09/05 00:20:56;;;;;;;4.07;3.70;;;;;;;11.23;100.00;96701.59;7433739;19;20428;-96
2023/09/05 01:15:53;;;;;;;3.20;2.90;;;;;;;10.23;100.00;96581.34;7383501;19;20448;-96
2023/09/05 01:18:51;;;;;;;3.00;2.70;;;;;;;10.81;100.00;96672.38;7436760;19;20408;-96
2023/09/05 01:21:43;;;;;;;8.30;3.57;;;;;;;10.18;100.00;96578.88;7433727;19;20389;-95
2023/09/05 01:24:22;;;;;;;2.80;2.60;;;;;;;11.03;100.00;96692.50;7430088;19;20373;-95
2023/09/05 01:26:55;;;;;;;5.33;2.70;;;;;;;10.23;100.00;96597.19;7434092;19;20376;-96
2023/09/05 01:29:38;;;;;;;3.07;2.83;;;;;;;11.15;100.00;96748.19;7433028;19;20384;-96
2023/09/05 01:32:38;;;;;;;3.07;2.87;;;;;;;11.22;100.00;96732.59;7432295;19;20407;-96
2023/09/05 01:35:14;;;;;;;3.43;3.17;;;;;;;10.28;100.00;96583.84;7434486;19;20381;-96
2023/09/05 01:38:17;;;;;;;2.70;2.50;;;;;;;9.92;100.00;96560.47;7433757;19;20380;-96
2023/09/05 01:40:57;;;;;;;3.10;2.80;;;;;;;11.06;100.00;96713.03;7432602;19;20414;-96
2023/09/05 01:43:25;;;;;;;5.60;2.73;;;;;;;10.32;100.00;96574.16;7427589;19;20424;-96
2023/09/05 01:45:59;;;;;;;3.13;2.83;;;;;;;11.07;100.00;96672.25;7431400;19;20376;-96
2023/09/05 01:48:43;;;;;;;3.20;2.60;;;;;;;10.45;100.00;96576.91;7431915;19;20384;-96
2023/09/05 01:51:14;;;;;;;2.90;2.70;;;;;;;10.81;100.00;96640.63;7433436;19;20388;-96
2023/09/05 01:53:44;;;;;;;3.00;2.70;;;;;;;10.36;100.00;96574.31;7427238;19;20415;-96
2023/09/05 01:56:17;;;;;;;11.57;3.00;;;;;;;11.46;100.00;96731.19;7433563;19;20409;-96
2023/09/05 01:59:08;;;;;;;3.47;3.17;;;;;;;10.24;100.00;96563.63;7433283;19;20394;-96
2023/09/05 02:01:39;;;;;;;2.70;2.50;;;;;;;11.14;100.00;96722.03;7431445;19;20375;-96
2023/09/05 02:04:12;;;;;;;2.93;2.73;;;;;;;10.16;100.00;96567.06;7433253;19;20413;-96
2023/09/05 02:06:43;;;;;;;2.37;2.17;;;;;;;11.65;100.00;96799.63;7431223;19;20385;-96
2023/09/05 02:09:12;;;;;;;2.70;2.40;;;;;;;11.32;100.00;96739.38;7433094;19;20389;-96
2023/09/05 02:11:43;;;;;;;5.70;3.37;;;;;;;10.17;100.00;96572.03;7431209;19;20411;-96
2023/09/05 02:14:11;;;;;;;2.60;2.40;;;;;;;10.25;100.00;96591.59;7430958;19;20449;-96
2023/09/05 02:16:41;;;;;;;3.00;2.47;;;;;;;10.01;100.00;96555.13;7431984;19;20369;-96
2023/09/05 02:19:29;;;;;;;4.60;3.43;;;;;;;10.21;100.00;96583.53;7430935;19;20396;-96
2023/09/05 02:22:05;;;;;;;2.63;2.43;;;;;;;12.29;100.00;96887.63;7431899;19;20385;-96
2023/09/05 02:24:45;;;;;;;3.37;3.07;;;;;;;11.58;100.00;96794.81;7430545;19;20377;-96
2023/09/05 02:27:19;;;;;;;4.90;2.90;;;;;;;12.26;100.00;96890.13;7430067;19;20381;-96
2023/09/05 02:29:55;;;;;;;3.23;2.70;;;;;;;10.13;100.00;96573.75;7431681;19;20388;-96
2023/09/05 02:32:24;;;;;;;3.00;2.80;;;;;;;10.12;100.00;96580.13;7429746;19;20421;-96
2023/09/05 02:34:55;;;;;;;2.77;2.57;;;;;;;10.83;100.00;96686.09;7432874;19;20429;-95
2023/09/05 02:37:31;;;;;;;3.00;2.80;;;;;;;9.80;100.00;96554.28;7430900;19;20384;-96
2023/09/05 02:40:03;;;;;;;3.90;2.63;;;;;;;9.93;100.00;96614.84;7432894;19;20397;-96
2023/09/05 02:42:35;;;;;;;2.57;2.40;;;;;;;9.49;100.00;96576.41;7429854;19;20449;-95
2023/09/05 02:45:03;;;;;;;5.40;2.53;;;;;;;10.29;100.00;96695.59;7428892;19;20385;-96
2023/09/05 02:47:36;;;;;;;3.30;3.10;;;;;;;9.41;100.00;96559.47;7431144;19;20420;-95
2023/09/05 02:50:19;;;;;;;2.63;2.43;;;;;;;9.23;100.00;96557.94;7430548;19;20381;-95
2023/09/05 02:52:50;;;;;;;3.33;2.57;;;;;;;9.21;100.00;96544.25;7427854;19;20448;-96
2023/09/05 02:55:26;;;;;;;2.50;2.30;;;;;;;10.27;100.00;96727.59;7434055;19;20397;-96
2023/09/05 02:58:07;;;;;;;3.23;2.93;;;;;;;10.44;100.00;96731.31;7437057;19;20384;-96
2023/09/05 03:00:41;;;;;;;2.53;2.13;;;;;;;9.23;100.00;96538.69;7438732;19;20369;-96
2023/09/05 03:03:10;;;;;;;3.00;2.80;;;;;;;9.21;100.00;96569.88;7435371;19;20428;-96
2023/09/05 03:05:38;;;;;;;3.20;2.80;;;;;;;9.17;100.00;96538.84;7434007;19;20424;-96
2023/09/05 03:08:12;;;;;;;2.70;2.50;;;;;;;9.25;100.00;96552.34;7437398;19;20396;-96
2023/09/05 03:10:42;;;;;;;2.77;2.20;;;;;;;9.04;100.00;96563.50;7438541;19;20408;-96
2023/09/05 03:13:16;;;;;;;3.73;2.90;;;;;;;9.09;100.00;96563.38;7435574;19;20424;-96
2023/09/05 03:15:52;;;;;;;5.90;2.80;;;;;;;9.21;100.00;96578.56;7435859;19;20417;-96
2023/09/05 03:18:45;;;;;;;5.23;2.53;;;;;;;9.98;100.00;96674.63;7437979;19;20369;-96
2023/09/05 04:28:51;;;;;;;2.70;2.50;;;;;;;8.06;100.00;96548.09;7415947;19;20464;-96
2023/09/05 04:35:00;;;;;;;3.57;3.27;;;;;;;7.68;100.00;96524.84;7435667;19;20414;-96
2023/09/05 04:37:40;;;;;;;3.80;2.77;;;;;;;7.70;100.00;96571.91;7434214;19;20434;-96
2023/09/05 04:40:53;;;;;;;8.00;3.30;;;;;;;9.44;100.00;96799.00;7433734;19;20369;-95
2023/09/05 04:43:39;;;;;;;4.00;3.10;;;;;;;8.70;100.00;96676.84;7429334;19;20396;-96
2023/09/05 04:46:33;;;;;;;4.23;3.30;;;;;;;8.32;100.00;96619.31;7433259;19;20376;-96
2023/09/05 04:49:36;;;;;;;3.70;2.83;;;;;;;7.77;100.00;96534.66;7434535;19;20391;-97
2023/09/05 04:52:29;;;;;;;2.97;2.77;;;;;;;9.17;100.00;96749.88;7432667;19;20424;-96
2023/09/05 04:55:40;;;;;;;2.43;2.23;;;;;;;9.88;100.00;96870.38;7432569;19;20404;-96
2023/09/05 04:58:17;;;;;;;3.40;3.10;;;;;;;7.66;100.00;96523.59;7431524;19;20384;-96
2023/09/05 05:01:04;;;;;;;4.30;2.87;;;;;;;9.10;100.00;96754.06;7434061;19;20406;-96
2023/09/05 05:03:45;;;;;;;5.37;2.90;;;;;;;9.98;100.00;96868.25;7431761;19;20424;-93
2023/09/05 05:06:13;;;;;;;5.70;2.80;;;;;;;8.02;100.00;96552.41;7430679;19;20393;-96
2023/09/05 05:08:42;;;;;;;5.97;3.53;;;;;;;7.99;100.00;96530.09;7433279;19;20417;-96
2023/09/05 05:11:13;;;;;;;3.97;3.30;;;;;;;7.85;100.00;96524.13;7432012;19;20400;-96
2023/09/05 05:13:56;;;;;;;4.90;2.73;;;;;;;7.75;100.00;96515.75;7431431;19;20439;-96
2023/09/05 05:16:43;;;;;;;4.03;3.00;;;;;;;7.91;100.00;96515.03;7429664;19;20397;-95
2023/09/05 05:19:25;;;;;;;3.97;3.57;;;;;;;8.36;100.00;96593.16;7424865;19;20388;-94
2023/09/05 05:22:28;;;;;;;5.90;3.07;;;;;;;10.08;100.00;96835.47;7426250;19;20429;-94
2023/09/05 05:25:07;;;;;;;9.70;4.07;;;;;;;8.46;100.00;96513.84;7427520;19;20376;-95
2023/09/05 05:27:36;;;;;;;8.60;3.03;;;;;;;9.48;100.00;96667.19;7426312;19;20420;-94
2023/09/05 05:30:18;;;;;;;6.90;3.47;;;;;;;8.62;100.00;96528.13;7429813;19;20433;-95
2023/09/05 05:32:58;;;;;;;4.57;4.13;;;;;;;9.75;100.00;96666.13;7428908;19;20416;-95
2023/09/05 05:35:51;;;;;;;9.23;3.50;;;;;;;8.75;100.00;96511.38;7427008;19;20395;-94
2023/09/05 05:38:32;;;;;;;5.80;3.77;;;;;;;10.07;100.00;96752.78;7430309;19;20395;-94
2023/09/05 05:41:28;;;;;;;;;;;;;;;;;;;;;
2023/09/05 05:44:18;;;;;;;8.33;3.33;;;;;;;11.61;100.00;96865.69;7427580;19;20474;-94
2023/09/05 05:47:03;;;;;;;5.43;4.80;;;;;;;10.71;100.00;96703.72;7423418;19;20377;-95
2023/09/05 08:58:42;;;;;;;2.67;2.37;;;;;;;18.54;100.00;96783.09;7431319;19;20436;-94
2023/09/05 09:47:30;;;;;;;3.43;2.50;;;;;;;19.03;97.88;96735.75;7430508;19;20391;-95
2023/09/05 09:50:09;;;;;;;3.00;2.80;;;;;;;19.16;96.46;96747.72;7430225;19;20424;-94
2023/09/05 09:53:11;;;;;;;3.60;3.30;;;;;;;18.98;97.33;96736.88;7432500;19;20388;-96
2023/09/05 09:56:13;;;;;;;3.77;3.00;;;;;;;18.86;96.22;96739.81;7432440;19;20385;-95
2023/09/05 09:58:51;;;;;;;3.50;2.80;;;;;;;18.07;96.29;96614.34;7431245;19;20447;-96
2023/09/05 10:02:17;;;;;;;3.60;2.87;;;;;;;19.75;95.58;96843.19;7431224;19;20384;-96
2023/09/05 10:05:00;;;;;;;3.07;2.30;;;;;;;19.18;97.15;96724.75;7426740;19;20373;-96
2023/09/05 10:20:04;;;;;;;2.77;2.57;;;;;;;19.72;93.41;96731.25;7432338;19;20401;-96
2023/09/05 10:22:46;;;;;;;5.17;3.23;;;;;;;19.38;93.08;96668.97;7430625;19;20397;-94
2023/09/05 10:25:21;;;;;;;3.60;2.90;;;;;;;19.67;90.83;96722.78;7432613;19;20392;-96
2023/09/05 10:28:33;;;;;;;2.90;2.70;;;;;;;19.46;90.94;96659.78;7431723;19;20393;-96
2023/09/05 10:31:19;;;;;;;4.70;3.60;;;;;;;19.68;92.11;96724.34;7428563;19;20446;-96
2023/09/05 10:34:03;;;;;;;3.87;3.57;;;;;;;19.90;91.95;96727.88;7430059;19;20398;-96
2023/09/05 10:36:41;;;;;;;4.30;3.90;;;;;;;19.95;93.96;96720.25;7431502;19;20448;-96
2023/09/05 10:39:32;;;;;;;4.30;3.90;;;;;;;20.20;91.04;96837.72;7430595;19;20435;-96
2023/09/05 10:42:11;;;;;;;4.57;4.17;;;;;;;20.80;91.06;96837.22;7430293;19;20393;-95
2023/09/05 10:44:48;;;;;;;5.77;4.63;;;;;;;19.72;88.59;96700.97;7432596;19;20396;-96
2023/09/05 10:47:36;;;;;;;7.83;7.13;;;;;;;20.15;88.43;96765.56;7428821;19;20395;-95
2023/09/05 10:50:26;;;;;;;8.10;7.40;;;;;;;20.55;89.08;96756.50;7429229;19;20433;-95
2023/09/05 10:53:25;;;;;;;6.70;6.10;;;;;;;21.30;84.08;96846.16;7428046;19;20401;-95
2023/09/05 10:56:04;;;;;;;6.43;5.73;;;;;;;20.46;82.79;96659.41;7431021;19;20428;-96
2023/09/05 10:59:01;;;;;;;10.90;9.80;;;;;;;21.65;85.99;96813.13;7428311;19;20388;-94
2023/09/05 11:02:00;;;;;;;9.43;8.53;;;;;;;22.00;82.62;96819.56;7430168;19;20408;-96
2023/09/05 11:04:44;;;;;;;7.00;5.90;;;;;;;21.13;84.37;96707.81;7428312;19;20409;-94
2023/09/05 11:07:48;;;;;;;5.07;4.67;;;;;;;21.30;80.87;96692.81;7426381;19;20397;-95
2023/09/05 11:10:53;;;;;;;5.40;3.83;;;;;;;20.94;79.33;96654.41;7428269;19;20464;-95
2023/09/05 11:13:58;;;;;;;4.07;3.10;;;;;;;20.83;81.74;96602.56;7430361;19;20412;-96
2023/09/05 11:17:02;;;;;;;4.67;4.30;;;;;;;21.12;81.82;96655.19;7434979;19;20453;-96
2023/09/05 11:20:03;;;;;;;4.60;3.50;;;;;;;21.63;80.90;96718.50;7435954;19;20452;-94
2023/09/05 11:23:08;;;;;;;4.93;4.00;;;;;;;21.07;81.73;96598.31;7436083;19;20407;-95
2023/09/05 11:28:52;;;;;;;6.40;5.83;;;;;;;20.95;75.36;96583.34;7438980;19;20445;-96
2023/09/05 11:31:34;;;;;;;6.10;5.37;;;;;;;21.48;74.90;96612.06;7436956;19;20425;-96
2023/09/05 11:34:17;;;;;;;5.00;4.50;;;;;;;22.26;75.78;96652.09;7436793;19;20428;-95
2023/09/05 11:37:04;;;;;;;4.40;4.00;;;;;;;23.40;75.22;96761.84;7436086;19;20388;-96
2023/09/05 11:39:36;;;;;;;4.23;3.90;;;;;;;23.74;73.68;96802.44;7436489;19;20424;-96
2023/09/05 11:42:30;;;;;;;;;;;;;;;;;;;;;
2023/09/05 11:45:23;;;;;;;4.47;4.10;;;;;;;22.98;73.28;96682.03;7436362;19;20424;-95
2023/09/05 11:48:04;;;;;;;5.83;5.23;;;;;;;22.53;74.78;96781.69;7433099;19;20412;-94
2023/09/05 17:54:30;;;;;;;6.50;4.30;;;;;;;18.50;99.59;96497.66;7429062;19;20393;-93
2023/09/05 18:03:23;;;;;;;5.30;4.83;;;;;;;17.55;100.00;96383.41;7428139;19;20442;-92
2023/09/05 18:06:14;;;;;;;4.27;3.97;;;;;;;17.82;100.00;96456.25;7431564;19;20393;-93
2023/09/05 18:09:10;;;;;;;5.30;4.80;;;;;;;18.41;100.00;96612.34;7431610;19;20681;-93
2023/09/05 18:11:49;;;;;;;5.20;4.77;;;;;;;16.18;100.00;96371.59;7428701;19;20451;-93
2023/09/05 18:14:40;;;;;;;4.87;4.47;;;;;;;16.35;100.00;96399.66;7432799;19;20389;-93
2023/09/05 18:17:36;;;;;;;4.67;4.27;;;;;;;18.16;100.00;96623.63;7431331;19;20369;-93
2023/09/05 18:20:15;;;;;;;5.50;5.00;;;;;;;17.40;100.00;96497.47;7430747;19;20395;-93
2023/09/05 18:23:10;;;;;;;6.60;6.00;;;;;;;18.29;100.00;96627.53;7430391;19;20385;-93
2023/09/05 18:25:50;;;;;;;8.07;5.70;;;;;;;17.11;100.00;96464.31;7430420;19;20393;-93
2023/09/05 18:29:00;;;;;;;8.70;7.13;;;;;;;18.24;100.00;96625.19;7431676;19;20902;-93
2023/09/05 18:32:02;;;;;;;7.07;6.40;;;;;;;16.36;100.00;96398.50;7429774;19;20412;-93
2023/09/05 18:34:48;;;;;;;6.50;6.00;;;;;;;16.12;100.00;96509.84;7430102;19;20384;-93
2023/09/05 18:37:25;;;;;;;9.47;8.70;;;;;;;15.76;100.00;96502.38;7432612;19;20380;-92
2023/09/05 18:39:53;;;;;;;10.60;9.60;;;;;;;15.74;100.00;96478.75;7431109;19;20424;-93
2023/09/05 18:42:23;;;;;;;10.50;9.13;;;;;;;16.66;100.00;96593.41;7427292;19;20470;-93
2023/09/05 18:44:55;;;;;;;8.50;7.70;;;;;;;15.93;100.00;96480.59;7431504;19;20412;-93
2023/09/05 18:47:29;;;;;;;10.03;8.00;;;;;;;16.10;100.00;96522.00;7428475;19;20384;-93
2023/09/05 18:49:57;;;;;;;7.50;6.80;;;;;;;16.25;100.00;96537.13;7431583;19;20396;-93
2023/09/05 18:52:35;;;;;;;8.43;6.90;;;;;;;15.22;100.00;96397.50;7427975;19;20428;-93
2023/09/05 18:55:09;;;;;;;8.40;7.60;;;;;;;15.14;100.00;96421.72;7432156;19;20376;-93
2023/09/05 18:57:36;;;;;;;10.50;9.40;;;;;;;15.10;100.00;96394.25;7430365;19;20388;-93
2023/09/05 19:00:10;;;;;;;8.53;7.73;;;;;;;16.33;100.00;96586.81;7431674;19;20391;-93
2023/09/05 19:02:38;;;;;;;9.73;8.90;;;;;;;15.05;100.00;96413.94;7427927;19;20437;-92
2023/09/05 19:05:13;;;;;;;7.60;7.00;;;;;;;15.25;100.00;96441.34;7428687;19;20401;-92
2023/09/05 19:07:41;;;;;;;6.83;6.13;;;;;;;15.00;100.00;96441.63;7429233;19;20373;-92
2023/09/05 19:10:14;;;;;;;11.23;6.40;;;;;;;14.88;100.00;96499.56;7429107;19;20412;-92
2023/09/05 19:12:46;;;;;;;7.10;6.50;;;;;;;15.59;100.00;96642.19;7428536;19;20460;-92
2023/09/05 19:15:13;;;;;;;8.70;7.90;;;;;;;15.70;100.00;96634.44;7427612;19;20409;-93
2023/09/05 19:17:51;;;;;;;8.90;7.97;;;;;;;15.19;100.00;96542.06;7431225;19;20380;-92
2023/09/05 19:20:24;;;;;;;12.27;9.13;;;;;;;15.11;100.00;96519.06;7429851;19;20381;-93
2023/09/05 19:22:54;;;;;;;10.43;7.77;;;;;;;15.15;100.00;96495.94;7431755;19;20389;-92
2023/09/05 19:25:42;;;;;;;9.63;8.73;;;;;;;16.22;100.00;96644.56;7430161;19;20392;-93
2023/09/05 19:28:21;;;;;;;10.70;9.60;;;;;;;14.87;100.00;96432.25;7426962;19;20389;-93
2023/09/05 19:31:06;;;;;;;13.30;9.20;;;;;;;15.84;100.00;96645.38;7430608;19;20427;-93
2023/09/05 19:33:48;;;;;;;8.83;7.93;;;;;;;14.30;100.00;96475.50;7429821;19;20400;-92
2023/09/05 19:36:37;;;;;;;9.57;8.63;;;;;;;14.67;100.00;96500.66;7428203;19;20385;-91
2023/09/05 19:42:50;;;;;;;11.27;9.03;;;;;;;15.54;100.00;96624.59;7434027;19;20528;-92
2023/09/05 19:45:45;;;;;;;10.17;9.17;;;;;;;14.49;100.00;96475.56;7434338;19;20380;-92
2023/09/05 19:48:41;;;;;;;8.80;7.93;;;;;;;14.13;100.00;96487.25;7431440;19;20428;-93
2023/09/05 19:51:40;;;;;;;12.30;9.33;;;;;;;14.46;100.00;96623.38;7435114;19;20417;-93
2023/09/05 19:54:27;;;;;;;10.27;9.27;;;;;;;14.44;100.00;96617.63;7435843;19;20444;-92
2023/09/05 19:57:29;;;;;;;;;;;;;;;;;;;;;
2023/09/05 20:00:01;;;;;;;11.70;10.00;;;;;;;14.13;100.00;96495.25;7437344;19;20381;-93
2023/09/05 20:02:38;;;;;;;11.60;10.07;;;;;;;14.42;100.00;96544.53;7433464;19;20419;-93
2023/09/05 20:05:18;;;;;;;13.23;10.17;;;;;;;14.77;100.00;96643.88;7434225;19;20407;-93
2023/09/05 20:07:49;;;;;;;13.97;9.53;;;;;;;14.16;100.00;96494.56;7435046;19;20381;-93
2023/09/05 20:10:22;;;;;;;17.03;14.07;;;;;;;14.14;100.00;96524.13;7434468;19;20404;-92
2023/09/05 20:12:55;;;;;;;26.07;10.83;;;;;;;13.18;100.00;96425.31;7435085;19;20412;-93
2023/09/05 20:15:27;;;;;;;29.20;11.87;;;;;;;13.16;100.00;96518.56;7436262;19;20443;-94
2023/09/05 20:17:57;;;;;;;47.73;14.10;;;;;;;14.25;100.00;96595.44;7435315;19;20434;-92
2023/09/05 20:20:30;;;;;;;63.40;16.57;;;;;;;14.64;100.00;96637.09;7436566;19;20407;-92
2023/09/05 20:23:00;;;;;;;57.37;15.03;;;;;;;12.84;100.00;96426.69;7433919;19;20400;-92
2023/09/05 20:25:36;;;;;;;49.13;15.50;;;;;;;12.57;100.00;96404.34;7434941;19;20404;-93
2023/09/05 20:28:06;;;;;;;48.90;15.30;;;;;;;13.25;100.00;96515.81;7434474;19;20393;-93
2023/09/05 20:30:36;;;;;;;37.27;13.27;;;;;;;12.47;100.00;96447.25;7434488;19;20389;-93
2023/09/05 20:33:10;;;;;;;53.80;14.27;;;;;;;13.66;100.00;96622.78;7436424;19;20416;-94
2023/09/05 20:35:50;;;;;;;53.20;11.63;;;;;;;12.32;100.00;96409.72;7434835;19;20395;-91
2023/09/05 20:38:39;;;;;;;47.93;11.90;;;;;;;12.39;100.00;96394.00;7433379;19;20376;-93
2023/09/05 20:41:24;;;;;;;51.10;13.17;;;;;;;12.82;100.00;96489.91;7435091;19;20432;-93
2023/09/05 20:44:31;;;;;;;29.10;12.00;;;;;;;12.47;100.00;96410.88;7434178;19;20424;-93
2023/09/05 20:47:15;;;;;;;46.87;12.67;;;;;;;12.55;100.00;96402.00;7431236;19;20373;-93
2023/09/05 20:50:05;;;;;;;37.30;12.83;;;;;;;12.59;100.00;96397.59;7432814;19;20392;-92
2023/09/05 20:52:50;;;;;;;22.67;12.00;;;;;;;12.73;100.00;96429.81;7431279;19;20416;-92
2023/09/05 21:11:05;;;;;;;42.37;12.13;;;;;;;12.97;100.00;96507.81;7432570;19;20421;-93
2023/09/05 21:13:37;;;;;;;50.90;13.30;;;;;;;12.57;100.00;96511.22;7434821;19;20381;-92
2023/09/05 21:16:08;;;;;;;52.40;14.37;;;;;;;12.32;100.00;96546.81;7433440;19;21419;-93
2023/09/05 21:18:38;;;;;;;37.00;11.97;;;;;;;11.99;100.00;96489.34;7435365;19;20388;-92
2023/09/05 21:21:11;;;;;;;39.73;11.13;;;;;;;12.70;100.00;96494.16;7432484;19;20420;-92
2023/09/05 21:23:38;;;;;;;45.73;11.30;;;;;;;13.18;100.00;96585.41;7431597;19;20385;-92
2023/09/05 21:26:15;;;;;;;29.30;10.93;;;;;;;12.55;100.00;96526.66;7432771;19;20405;-93
2023/09/05 21:28:54;;;;;;;36.87;9.93;;;;;;;12.14;100.00;96503.81;7433205;19;20409;-93
2023/09/05 21:31:22;;;;;;;32.93;10.63;;;;;;;12.58;100.00;96549.91;7432137;19;20421;-92
2023/09/05 21:33:51;;;;;;;30.67;10.90;;;;;;;12.26;100.00;96498.53;7434552;19;20393;-91
2023/09/05 21:36:31;;;;;;;22.50;9.77;;;;;;;11.32;100.00;96405.81;7429930;19;20388;-94
2023/09/05 21:51:06;;;;;;;26.63;10.73;;;;;;;11.67;100.00;96506.84;7420864;19;20432;-93
2023/09/05 21:53:43;;;;;;;30.27;9.80;;;;;;;11.07;100.00;96399.69;7430656;19;20397;-94
2023/09/05 21:56:20;;;;;;;29.57;10.50;;;;;;;12.08;100.00;96582.78;7429926;19;20400;-92
2023/09/05 21:59:00;;;;;;;31.07;11.10;;;;;;;11.63;100.00;96489.31;7431805;19;20385;-93
2023/09/05 22:01:28;;;;;;;35.63;12.13;;;;;;;11.57;100.00;96478.13;7427495;19;20428;-92
2023/09/05 22:04:00;;;;;;;26.17;11.40;;;;;;;11.69;100.00;96486.09;7431858;19;20400;-92
2023/09/05 22:06:33;;;;;;;22.77;12.70;;;;;;;11.84;100.00;96487.34;7430743;19;20407;-94
2023/09/05 22:09:03;;;;;;;23.83;9.90;;;;;;;11.94;100.00;96491.47;7431088;19;20404;-91
2023/09/05 22:11:31;;;;;;;22.30;8.23;;;;;;;11.21;100.00;96492.81;7429824;19;20457;-93
2023/09/05 22:14:02;;;;;;;22.37;8.73;;;;;;;11.39;100.00;96492.66;7432179;19;20385;-91
2023/09/05 22:16:33;;;;;;;22.07;9.17;;;;;;;11.61;100.00;96508.16;7430675;19;20393;-91
2023/09/05 22:19:42;;;;;;;;;;;;;;;;;;;;;
2023/09/05 22:22:25;;;;;;;27.13;9.10;;;;;;;11.16;100.00;96564.47;7431038;19;20428;-92
2023/09/05 22:25:32;;;;;;;15.93;8.37;;;;;;;10.18;100.00;96369.34;7431642;19;20388;-92
2023/09/05 22:28:37;;;;;;;26.83;8.37;;;;;;;11.18;100.00;96503.28;7429766;19;20412;-93
2023/09/05 22:31:14;;;;;;;27.30;10.37;;;;;;;10.67;100.00;96412.69;7431069;19;20444;-92
2023/09/05 22:34:02;;;;;;;16.87;7.90;;;;;;;10.56;100.00;96438.75;7433233;19;20397;-92
2023/09/05 22:36:38;;;;;;;23.57;10.07;;;;;;;11.03;100.00;96517.09;7430004;19;20432;-93
2023/09/05 22:39:30;;;;;;;20.23;9.80;;;;;;;10.42;100.00;96377.44;7429927;19;20427;-93
2023/09/05 22:45:01;;;;;;;16.03;7.93;;;;;;;11.34;100.00;96509.50;7430507;19;20393;-92
2023/09/05 22:48:07;;;;;;;10.40;8.13;;;;;;;10.78;100.00;96400.59;7428757;19;20397;-93
2023/09/05 22:50:58;;;;;;;14.33;8.20;;;;;;;11.52;100.00;96505.59;7428979;19;20445;-91
2023/09/05 22:53:32;;;;;;;19.43;9.10;;;;;;;11.49;100.00;96489.59;7430952;19;20408;-93
2023/09/05 22:56:32;;;;;;;14.23;7.40;;;;;;;11.90;100.00;96601.88;7429485;19;20432;-92
2023/09/05 22:59:22;;;;;;;15.23;8.30;;;;;;;10.27;100.00;96392.00;7429218;19;20387;-92
2023/09/05 23:01:54;;;;;;;12.00;7.00;;;;;;;10.95;100.00;96492.25;7429668;19;20446;-92
2023/09/05 23:04:26;;;;;;;18.63;8.33;;;;;;;11.72;100.00;96641.72;7429269;19;20389;-93
2023/09/05 23:06:54;;;;;;;18.20;7.60;;;;;;;11.19;100.00;96532.06;7430666;19;20400;-93
2023/09/05 23:09:29;;;;;;;10.43;7.50;;;;;;;10.80;100.00;96501.56;7427834;19;20401;-92
2023/09/05 23:11:58;;;;;;;19.80;7.20;;;;;;;10.55;100.00;96498.03;7428744;19;20435;-91
2023/09/05 23:14:28;;;;;;;16.50;7.67;;;;;;;10.89;100.00;96506.78;7437008;19;20409;-92
2023/09/05 23:17:00;;;;;;;14.27;7.07;;;;;;;10.69;100.00;96468.69;7435713;19;20405;-92
2023/09/05 23:19:36;;;;;;;13.83;6.93;;;;;;;11.23;100.00;96543.56;7437666;19;20388;-92
2023/09/05 23:22:06;;;;;;;10.00;6.97;;;;;;;11.98;100.00;96646.03;7434256;19;20433;-92
2023/09/05 23:24:37;;;;;;;10.10;6.57;;;;;;;10.88;100.00;96492.00;7437659;19;20392;-91
2023/09/05 23:27:24;;;;;;;9.80;6.80;;;;;;;11.70;100.00;96622.72;7436541;19;20443;-91
2023/09/05 23:30:00;;;;;;;13.13;7.37;;;;;;;11.81;100.00;96636.38;7432145;19;20373;-93
2023/09/05 23:32:55;;;;;;;12.43;7.33;;;;;;;10.45;100.00;96452.69;7434229;19;20464;-92
2023/09/05 23:35:55;;;;;;;12.00;8.57;;;;;;;11.53;100.00;96633.47;7436434;19;20393;-93
2023/09/05 23:38:50;;;;;;;12.67;6.53;;;;;;;11.00;100.00;96558.22;7436056;19;20413;-93
2023/09/05 23:41:36;;;;;;;12.57;8.67;;;;;;;10.85;100.00;96519.88;7432078;19;20408;-93
2023/09/05 23:44:48;;;;;;;17.30;7.50;;;;;;;11.53;100.00;96626.31;7434690;19;20400;-92
2023/09/05 23:47:29;;;;;;;11.57;7.70;;;;;;;10.77;100.00;96491.63;7438594;19;20392;-93
2023/09/05 23:50:04;;;;;;;12.13;7.83;;;;;;;10.73;100.00;96522.47;7433584;19;20380;-94
2023/09/05 23:52:34;;;;;;;22.10;7.43;;;;;;;9.47;100.00;96325.19;7429790;19;20459;-96
2023/09/05 23:55:02;;;;;;;10.53;6.37;;;;;;;10.06;100.00;96439.50;7433536;19;20365;-96
2023/09/05 23:57:35;;;;;;;10.77;6.50;;;;;;;8.92;100.00;96320.75;7433511;19;20389;-95
